sensor_id;sensor_type;location;lat;lon;timestamp;P1;durP1;ratioP1;P2;durP2;ratioP2
69894;SDS011;57172;52.034;5.090;2022-11-27T00:01:17;13.77;;;4.20;;
69894;SDS011;57172;52.034;5.090;2022-11-27T00:03:46;9.47;;;3.50;;
69894;SDS011;57172;52.034;5.090;2022-11-27T00:06:15;11.70;;;3.60;;
69894;SDS011;57172;52.034;5.090;2022-11-27T00:08:44;11.20;;;3.80;;
69894;SDS011;57172;52.034;5.090;2022-11-27T00:11:13;15.02;;;4.30;;
69894;SDS011;57172;52.034;5.090;2022-11-27T00:13:41;14.00;;;4.90;;
69894;SDS011;57172;52.034;5.090;2022-11-27T00:16:08;8.37;;;3.50;;
69894;SDS011;57172;52.034;5.090;2022-11-27T00:18:36;14.65;;;4.13;;
69894;SDS011;57172;52.034;5.090;2022-11-27T00:21:10;16.73;;;4.60;;
69894;SDS011;57172;52.034;5.090;2022-11-27T00:23:39;14.88;;;4.47;;
69894;SDS011;57172;52.034;5.090;2022-11-27T00:26:06;14.02;;;4.28;;
69894;SDS011;57172;52.034;5.090;2022-11-27T00:28:33;15.50;;;4.87;;
69894;SDS011;57172;52.034;5.090;2022-11-27T00:31:02;12.80;;;4.40;;
69894;SDS011;57172;52.034;5.090;2022-11-27T00:33:31;12.00;;;3.63;;
69894;SDS011;57172;52.034;5.090;2022-11-27T00:36:02;9.82;;;3.65;;
69894;SDS011;57172;52.034;5.090;2022-11-27T00:38:30;17.50;;;4.95;;
69894;SDS011;57172;52.034;5.090;2022-11-27T00:41:04;10.80;;;3.73;;
69894;SDS011;57172;52.034;5.090;2022-11-27T00:43:42;10.82;;;4.18;;
69894;SDS011;57172;52.034;5.090;2022-11-27T00:46:14;10.05;;;4.03;;
69894;SDS011;57172;52.034;5.090;2022-11-27T00:48:42;14.27;;;4.60;;
69894;SDS011;57172;52.034;5.090;2022-11-27T00:51:11;11.07;;;3.72;;
69894;SDS011;57172;52.034;5.090;2022-11-27T00:53:39;13.80;;;4.80;;
69894;SDS011;57172;52.034;5.090;2022-11-27T00:56:07;14.60;;;4.40;;
69894;SDS011;57172;52.034;5.090;2022-11-27T00:58:34;13.15;;;4.13;;
69894;SDS011;57172;52.034;5.090;2022-11-27T01:01:02;12.27;;;4.03;;
69894;SDS011;57172;52.034;5.090;2022-11-27T01:03:30;7.00;;;2.78;;
69894;SDS011;57172;52.034;5.090;2022-11-27T01:06:02;12.47;;;4.40;;
69894;SDS011;57172;52.034;5.090;2022-11-27T01:08:31;11.93;;;3.90;;
69894;SDS011;57172;52.034;5.090;2022-11-27T01:10:58;10.27;;;3.80;;
69894;SDS011;57172;52.034;5.090;2022-11-27T01:13:27;8.15;;;3.10;;
69894;SDS011;57172;52.034;5.090;2022-11-27T01:15:59;16.80;;;3.78;;
69894;SDS011;57172;52.034;5.090;2022-11-27T01:18:34;7.93;;;3.53;;
69894;SDS011;57172;52.034;5.090;2022-11-27T01:21:03;9.13;;;3.55;;
69894;SDS011;57172;52.034;5.090;2022-11-27T01:23:30;10.98;;;3.50;;
69894;SDS011;57172;52.034;5.090;2022-11-27T01:26:01;12.38;;;3.92;;
69894;SDS011;57172;52.034;5.090;2022-11-27T01:28:29;16.45;;;4.28;;
69894;SDS011;57172;52.034;5.090;2022-11-27T01:30:57;15.17;;;4.07;;
69894;SDS011;57172;52.034;5.090;2022-11-27T01:33:24;11.55;;;3.80;;
69894;SDS011;57172;52.034;5.090;2022-11-27T01:35:52;10.18;;;4.13;;
69894;SDS011;57172;52.034;5.090;2022-11-27T01:38:20;9.30;;;3.20;;
69894;SDS011;57172;52.034;5.090;2022-11-27T01:40:48;11.23;;;4.40;;
69894;SDS011;57172;52.034;5.090;2022-11-27T01:49:22;11.52;;;3.88;;
69894;SDS011;57172;52.034;5.090;2022-11-27T01:54:28;11.35;;;3.70;;
69894;SDS011;57172;52.034;5.090;2022-11-27T01:57:03;12.13;;;3.83;;
69894;SDS011;57172;52.034;5.090;2022-11-27T01:59:35;10.20;;;3.35;;
69894;SDS011;57172;52.034;5.090;2022-11-27T02:02:02;18.05;;;4.35;;
69894;SDS011;57172;52.034;5.090;2022-11-27T02:04:29;15.80;;;4.40;;
69894;SDS011;57172;52.034;5.090;2022-11-27T02:06:57;9.75;;;3.95;;
69894;SDS011;57172;52.034;5.090;2022-11-27T02:09:25;16.47;;;4.00;;
69894;SDS011;57172;52.034;5.090;2022-11-27T02:12:10;9.45;;;3.95;;
69894;SDS011;57172;52.034;5.090;2022-11-27T02:18:11;15.70;;;3.90;;
69894;SDS011;57172;52.034;5.090;2022-11-27T02:20:45;14.70;;;4.10;;
69894;SDS011;57172;52.034;5.090;2022-11-27T02:34:13;10.88;;;3.30;;
69894;SDS011;57172;52.034;5.090;2022-11-27T02:37:14;15.47;;;4.43;;
69894;SDS011;57172;52.034;5.090;2022-11-27T02:42:30;10.50;;;3.72;;
69894;SDS011;57172;52.034;5.090;2022-11-27T02:45:04;13.60;;;4.13;;
69894;SDS011;57172;52.034;5.090;2022-11-27T02:47:37;9.32;;;4.18;;
69894;SDS011;57172;52.034;5.090;2022-11-27T02:50:09;7.97;;;2.90;;
69894;SDS011;57172;52.034;5.090;2022-11-27T02:52:41;12.40;;;3.60;;
69894;SDS011;57172;52.034;5.090;2022-11-27T02:55:10;8.57;;;3.20;;
69894;SDS011;57172;52.034;5.090;2022-11-27T02:57:41;11.15;;;3.05;;
69894;SDS011;57172;52.034;5.090;2022-11-27T03:00:09;12.43;;;3.22;;
69894;SDS011;57172;52.034;5.090;2022-11-27T03:02:51;10.17;;;3.30;;
69894;SDS011;57172;52.034;5.090;2022-11-27T03:05:27;9.02;;;3.65;;
69894;SDS011;57172;52.034;5.090;2022-11-27T03:07:58;8.60;;;3.40;;
69894;SDS011;57172;52.034;5.090;2022-11-27T03:10:32;5.93;;;2.80;;
69894;SDS011;57172;52.034;5.090;2022-11-27T03:13:04;7.78;;;2.80;;
69894;SDS011;57172;52.034;5.090;2022-11-27T03:15:36;12.20;;;3.33;;
69894;SDS011;57172;52.034;5.090;2022-11-27T03:18:13;11.18;;;3.55;;
69894;SDS011;57172;52.034;5.090;2022-11-27T03:20:48;11.02;;;3.47;;
69894;SDS011;57172;52.034;5.090;2022-11-27T03:23:21;11.45;;;3.47;;
69894;SDS011;57172;52.034;5.090;2022-11-27T03:25:47;11.65;;;3.10;;
69894;SDS011;57172;52.034;5.090;2022-11-27T03:28:14;12.13;;;3.30;;
69894;SDS011;57172;52.034;5.090;2022-11-27T03:30:42;14.27;;;3.80;;
69894;SDS011;57172;52.034;5.090;2022-11-27T03:33:09;8.98;;;2.90;;
69894;SDS011;57172;52.034;5.090;2022-11-27T03:35:36;8.02;;;2.90;;
69894;SDS011;57172;52.034;5.090;2022-11-27T03:38:02;8.20;;;3.25;;
69894;SDS011;57172;52.034;5.090;2022-11-27T03:40:32;9.80;;;3.20;;
69894;SDS011;57172;52.034;5.090;2022-11-27T03:43:18;8.57;;;3.08;;
69894;SDS011;57172;52.034;5.090;2022-11-27T03:45:57;8.40;;;3.30;;
69894;SDS011;57172;52.034;5.090;2022-11-27T03:54:15;9.67;;;3.30;;
69894;SDS011;57172;52.034;5.090;2022-11-27T03:56:55;8.95;;;2.80;;
69894;SDS011;57172;52.034;5.090;2022-11-27T03:59:30;10.55;;;3.40;;
69894;SDS011;57172;52.034;5.090;2022-11-27T04:02:02;8.68;;;3.33;;
69894;SDS011;57172;52.034;5.090;2022-11-27T04:04:29;10.27;;;3.22;;
69894;SDS011;57172;52.034;5.090;2022-11-27T04:06:55;15.57;;;3.97;;
69894;SDS011;57172;52.034;5.090;2022-11-27T04:09:22;9.23;;;3.13;;
69894;SDS011;57172;52.034;5.090;2022-11-27T04:11:50;11.90;;;3.78;;
69894;SDS011;57172;52.034;5.090;2022-11-27T04:14:17;11.85;;;3.95;;
69894;SDS011;57172;52.034;5.090;2022-11-27T04:16:44;14.30;;;4.03;;
69894;SDS011;57172;52.034;5.090;2022-11-27T04:19:11;10.63;;;4.37;;
69894;SDS011;57172;52.034;5.090;2022-11-27T04:21:37;9.50;;;4.20;;
69894;SDS011;57172;52.034;5.090;2022-11-27T04:24:04;9.90;;;3.97;;
69894;SDS011;57172;52.034;5.090;2022-11-27T04:26:31;13.82;;;4.40;;
69894;SDS011;57172;52.034;5.090;2022-11-27T04:28:58;13.38;;;4.30;;
69894;SDS011;57172;52.034;5.090;2022-11-27T04:31:25;12.10;;;4.97;;
69894;SDS011;57172;52.034;5.090;2022-11-27T04:33:52;11.25;;;4.40;;
69894;SDS011;57172;52.034;5.090;2022-11-27T04:36:19;11.00;;;3.95;;
69894;SDS011;57172;52.034;5.090;2022-11-27T04:38:45;9.48;;;4.07;;
69894;SDS011;57172;52.034;5.090;2022-11-27T04:41:12;12.35;;;4.47;;
69894;SDS011;57172;52.034;5.090;2022-11-27T04:43:39;10.27;;;3.93;;
69894;SDS011;57172;52.034;5.090;2022-11-27T04:46:06;12.48;;;4.10;;
69894;SDS011;57172;52.034;5.090;2022-11-27T04:48:32;14.98;;;4.65;;
69894;SDS011;57172;52.034;5.090;2022-11-27T04:50:59;12.40;;;4.35;;
69894;SDS011;57172;52.034;5.090;2022-11-27T04:53:26;10.93;;;4.25;;
69894;SDS011;57172;52.034;5.090;2022-11-27T04:55:53;12.30;;;4.87;;
69894;SDS011;57172;52.034;5.090;2022-11-27T04:58:20;12.00;;;4.40;;
69894;SDS011;57172;52.034;5.090;2022-11-27T05:00:47;16.23;;;5.25;;
69894;SDS011;57172;52.034;5.090;2022-11-27T05:03:14;10.82;;;4.22;;
69894;SDS011;57172;52.034;5.090;2022-11-27T05:05:41;9.38;;;4.00;;
69894;SDS011;57172;52.034;5.090;2022-11-27T05:08:08;11.87;;;4.10;;
69894;SDS011;57172;52.034;5.090;2022-11-27T05:10:35;7.97;;;3.75;;
69894;SDS011;57172;52.034;5.090;2022-11-27T05:13:01;14.27;;;4.60;;
69894;SDS011;57172;52.034;5.090;2022-11-27T05:15:28;10.32;;;4.10;;
69894;SDS011;57172;52.034;5.090;2022-11-27T05:17:55;12.63;;;4.07;;
69894;SDS011;57172;52.034;5.090;2022-11-27T05:20:22;9.47;;;3.93;;
69894;SDS011;57172;52.034;5.090;2022-11-27T05:22:49;12.30;;;4.10;;
69894;SDS011;57172;52.034;5.090;2022-11-27T05:25:15;12.05;;;4.38;;
69894;SDS011;57172;52.034;5.090;2022-11-27T05:27:42;11.18;;;4.18;;
69894;SDS011;57172;52.034;5.090;2022-11-27T05:30:09;7.57;;;3.58;;
69894;SDS011;57172;52.034;5.090;2022-11-27T05:32:36;16.33;;;4.80;;
69894;SDS011;57172;52.034;5.090;2022-11-27T05:35:03;10.32;;;4.90;;
69894;SDS011;57172;52.034;5.090;2022-11-27T05:37:30;8.80;;;3.65;;
69894;SDS011;57172;52.034;5.090;2022-11-27T05:39:57;12.98;;;4.35;;
69894;SDS011;57172;52.034;5.090;2022-11-27T05:42:24;10.40;;;4.30;;
69894;SDS011;57172;52.034;5.090;2022-11-27T05:44:50;10.97;;;4.20;;
69894;SDS011;57172;52.034;5.090;2022-11-27T05:47:23;6.60;;;2.67;;
69894;SDS011;57172;52.034;5.090;2022-11-27T05:49:50;12.20;;;4.10;;
69894;SDS011;57172;52.034;5.090;2022-11-27T05:52:17;10.63;;;4.30;;
69894;SDS011;57172;52.034;5.090;2022-11-27T05:54:44;10.02;;;3.30;;
69894;SDS011;57172;52.034;5.090;2022-11-27T05:57:10;11.17;;;3.90;;
69894;SDS011;57172;52.034;5.090;2022-11-27T05:59:37;10.63;;;4.30;;
69894;SDS011;57172;52.034;5.090;2022-11-27T06:02:04;13.65;;;4.25;;
69894;SDS011;57172;52.034;5.090;2022-11-27T06:04:32;8.95;;;3.30;;
69894;SDS011;57172;52.034;5.090;2022-11-27T06:06:59;13.18;;;4.10;;
69894;SDS011;57172;52.034;5.090;2022-11-27T06:09:26;10.97;;;3.90;;
69894;SDS011;57172;52.034;5.090;2022-11-27T06:11:53;10.10;;;3.90;;
69894;SDS011;57172;52.034;5.090;2022-11-27T06:14:20;5.43;;;2.33;;
69894;SDS011;57172;52.034;5.090;2022-11-27T06:16:47;11.50;;;3.85;;
69894;SDS011;57172;52.034;5.090;2022-11-27T06:19:14;10.60;;;4.05;;
69894;SDS011;57172;52.034;5.090;2022-11-27T06:21:40;10.27;;;3.63;;
69894;SDS011;57172;52.034;5.090;2022-11-27T06:24:07;9.93;;;3.22;;
69894;SDS011;57172;52.034;5.090;2022-11-27T06:26:34;7.50;;;2.78;;
69894;SDS011;57172;52.034;5.090;2022-11-27T06:29:01;9.45;;;3.28;;
69894;SDS011;57172;52.034;5.090;2022-11-27T06:31:29;9.65;;;2.92;;
69894;SDS011;57172;52.034;5.090;2022-11-27T06:33:57;8.70;;;3.40;;
69894;SDS011;57172;52.034;5.090;2022-11-27T06:36:35;7.22;;;2.60;;
69894;SDS011;57172;52.034;5.090;2022-11-27T06:39:04;7.72;;;3.05;;
69894;SDS011;57172;52.034;5.090;2022-11-27T06:41:31;8.70;;;3.05;;
69894;SDS011;57172;52.034;5.090;2022-11-27T06:43:59;8.93;;;3.10;;
69894;SDS011;57172;52.034;5.090;2022-11-27T06:46:26;9.73;;;2.80;;
69894;SDS011;57172;52.034;5.090;2022-11-27T06:48:56;9.13;;;3.20;;
69894;SDS011;57172;52.034;5.090;2022-11-27T06:51:23;8.50;;;3.47;;
69894;SDS011;57172;52.034;5.090;2022-11-27T06:53:52;6.95;;;3.00;;
69894;SDS011;57172;52.034;5.090;2022-11-27T06:56:23;7.47;;;3.30;;
69894;SDS011;57172;52.034;5.090;2022-11-27T06:58:52;9.80;;;3.80;;
69894;SDS011;57172;52.034;5.090;2022-11-27T07:01:20;10.48;;;3.92;;
69894;SDS011;57172;52.034;5.090;2022-11-27T07:03:48;7.82;;;3.35;;
69894;SDS011;57172;52.034;5.090;2022-11-27T07:06:17;9.32;;;3.17;;
69894;SDS011;57172;52.034;5.090;2022-11-27T07:08:45;7.90;;;3.38;;
69894;SDS011;57172;52.034;5.090;2022-11-27T07:11:23;17.13;;;4.37;;
69894;SDS011;57172;52.034;5.090;2022-11-27T07:13:53;7.82;;;3.47;;
69894;SDS011;57172;52.034;5.090;2022-11-27T07:16:21;10.50;;;4.40;;
69894;SDS011;57172;52.034;5.090;2022-11-27T07:18:51;10.18;;;3.80;;
69894;SDS011;57172;52.034;5.090;2022-11-27T07:21:19;9.25;;;3.50;;
69894;SDS011;57172;52.034;5.090;2022-11-27T07:23:46;12.40;;;4.13;;
69894;SDS011;57172;52.034;5.090;2022-11-27T07:26:14;7.50;;;3.22;;
69894;SDS011;57172;52.034;5.090;2022-11-27T07:28:43;11.55;;;4.25;;
69894;SDS011;57172;52.034;5.090;2022-11-27T07:31:15;11.50;;;4.72;;
69894;SDS011;57172;52.034;5.090;2022-11-27T07:33:48;12.90;;;4.40;;
69894;SDS011;57172;52.034;5.090;2022-11-27T07:36:19;12.77;;;3.70;;
69894;SDS011;57172;52.034;5.090;2022-11-27T07:38:50;11.00;;;4.43;;
69894;SDS011;57172;52.034;5.090;2022-11-27T07:41:18;12.00;;;4.65;;
69894;SDS011;57172;52.034;5.090;2022-11-27T07:43:45;10.20;;;4.10;;
69894;SDS011;57172;52.034;5.090;2022-11-27T07:46:14;14.82;;;5.20;;
69894;SDS011;57172;52.034;5.090;2022-11-27T07:48:43;11.23;;;4.47;;
69894;SDS011;57172;52.034;5.090;2022-11-27T07:51:11;11.05;;;4.55;;
69894;SDS011;57172;52.034;5.090;2022-11-27T07:53:40;11.93;;;4.88;;
69894;SDS011;57172;52.034;5.090;2022-11-27T07:56:09;11.98;;;4.25;;
69894;SDS011;57172;52.034;5.090;2022-11-27T07:58:37;8.38;;;3.85;;
69894;SDS011;57172;52.034;5.090;2022-11-27T08:01:05;13.17;;;4.40;;
69894;SDS011;57172;52.034;5.090;2022-11-27T08:03:33;12.35;;;4.20;;
69894;SDS011;57172;52.034;5.090;2022-11-27T08:06:00;9.70;;;3.88;;
69894;SDS011;57172;52.034;5.090;2022-11-27T08:08:27;12.30;;;4.30;;
69894;SDS011;57172;52.034;5.090;2022-11-27T08:10:54;11.50;;;4.28;;
69894;SDS011;57172;52.034;5.090;2022-11-27T08:13:21;10.77;;;4.37;;
69894;SDS011;57172;52.034;5.090;2022-11-27T08:15:48;11.02;;;3.83;;
69894;SDS011;57172;52.034;5.090;2022-11-27T08:18:14;10.93;;;3.80;;
69894;SDS011;57172;52.034;5.090;2022-11-27T08:20:41;9.07;;;3.83;;
69894;SDS011;57172;52.034;5.090;2022-11-27T08:23:08;12.38;;;4.00;;
69894;SDS011;57172;52.034;5.090;2022-11-27T08:25:36;7.43;;;2.93;;
69894;SDS011;57172;52.034;5.090;2022-11-27T08:28:03;7.95;;;3.10;;
69894;SDS011;57172;52.034;5.090;2022-11-27T08:30:30;13.27;;;4.28;;
69894;SDS011;57172;52.034;5.090;2022-11-27T08:32:57;12.73;;;4.50;;
69894;SDS011;57172;52.034;5.090;2022-11-27T08:35:24;13.23;;;4.30;;
69894;SDS011;57172;52.034;5.090;2022-11-27T08:37:51;12.07;;;4.07;;
69894;SDS011;57172;52.034;5.090;2022-11-27T08:40:18;7.63;;;2.83;;
69894;SDS011;57172;52.034;5.090;2022-11-27T08:42:44;8.02;;;3.20;;
69894;SDS011;57172;52.034;5.090;2022-11-27T08:45:11;11.75;;;3.90;;
69894;SDS011;57172;52.034;5.090;2022-11-27T08:47:38;12.25;;;4.03;;
69894;SDS011;57172;52.034;5.090;2022-11-27T08:50:06;11.33;;;4.17;;
69894;SDS011;57172;52.034;5.090;2022-11-27T08:52:33;12.65;;;4.47;;
69894;SDS011;57172;52.034;5.090;2022-11-27T08:55:01;9.30;;;4.07;;
69894;SDS011;57172;52.034;5.090;2022-11-27T08:57:28;9.68;;;3.92;;
69894;SDS011;57172;52.034;5.090;2022-11-27T08:59:55;10.52;;;4.40;;
69894;SDS011;57172;52.034;5.090;2022-11-27T09:02:22;7.60;;;3.37;;
69894;SDS011;57172;52.034;5.090;2022-11-27T09:04:51;7.97;;;3.60;;
69894;SDS011;57172;52.034;5.090;2022-11-27T09:07:17;9.55;;;4.20;;
69894;SDS011;57172;52.034;5.090;2022-11-27T09:09:45;10.57;;;4.47;;
69894;SDS011;57172;52.034;5.090;2022-11-27T09:12:12;10.50;;;3.85;;
69894;SDS011;57172;52.034;5.090;2022-11-27T09:14:38;10.63;;;4.03;;
69894;SDS011;57172;52.034;5.090;2022-11-27T09:17:06;11.90;;;4.43;;
69894;SDS011;57172;52.034;5.090;2022-11-27T09:19:33;11.35;;;4.57;;
69894;SDS011;57172;52.034;5.090;2022-11-27T09:21:59;12.55;;;4.80;;
69894;SDS011;57172;52.034;5.090;2022-11-27T09:24:26;12.45;;;4.38;;
69894;SDS011;57172;52.034;5.090;2022-11-27T09:26:53;10.03;;;4.57;;
69894;SDS011;57172;52.034;5.090;2022-11-27T09:29:20;11.07;;;3.47;;
69894;SDS011;57172;52.034;5.090;2022-11-27T09:31:49;9.13;;;3.47;;
69894;SDS011;57172;52.034;5.090;2022-11-27T09:34:16;12.13;;;4.18;;
69894;SDS011;57172;52.034;5.090;2022-11-27T09:36:43;11.63;;;4.55;;
69894;SDS011;57172;52.034;5.090;2022-11-27T09:39:11;8.93;;;3.63;;
69894;SDS011;57172;52.034;5.090;2022-11-27T09:41:48;9.35;;;3.88;;
69894;SDS011;57172;52.034;5.090;2022-11-27T09:46:58;9.30;;;4.07;;
69894;SDS011;57172;52.034;5.090;2022-11-27T09:49:32;9.80;;;4.25;;
69894;SDS011;57172;52.034;5.090;2022-11-27T09:54:49;9.20;;;4.30;;
69894;SDS011;57172;52.034;5.090;2022-11-27T09:57:55;13.55;;;4.25;;
69894;SDS011;57172;52.034;5.090;2022-11-27T10:00:27;8.10;;;4.40;;
69894;SDS011;57172;52.034;5.090;2022-11-27T10:02:54;12.85;;;4.70;;
69894;SDS011;57172;52.034;5.090;2022-11-27T10:05:23;9.03;;;3.97;;
69894;SDS011;57172;52.034;5.090;2022-11-27T10:16:42;9.95;;;4.43;;
69894;SDS011;57172;52.034;5.090;2022-11-27T10:19:27;12.40;;;5.10;;
69894;SDS011;57172;52.034;5.090;2022-11-27T10:22:11;11.32;;;4.38;;
69894;SDS011;57172;52.034;5.090;2022-11-27T10:27:44;11.18;;;4.95;;
69894;SDS011;57172;52.034;5.090;2022-11-27T10:30:25;11.85;;;5.30;;
69894;SDS011;57172;52.034;5.090;2022-11-27T10:32:56;12.97;;;5.70;;
69894;SDS011;57172;52.034;5.090;2022-11-27T10:35:27;13.85;;;5.45;;
69894;SDS011;57172;52.034;5.090;2022-11-27T10:38:12;10.43;;;4.07;;
69894;SDS011;57172;52.034;5.090;2022-11-27T10:40:51;14.02;;;5.03;;
69894;SDS011;57172;52.034;5.090;2022-11-27T10:43:24;8.65;;;4.05;;
69894;SDS011;57172;52.034;5.090;2022-11-27T10:46:13;12.50;;;4.70;;
69894;SDS011;57172;52.034;5.090;2022-11-27T10:48:38;9.00;;;4.60;;
69894;SDS011;57172;52.034;5.090;2022-11-27T10:51:13;12.68;;;4.90;;
69894;SDS011;57172;52.034;5.090;2022-11-27T10:53:44;12.98;;;5.07;;
69894;SDS011;57172;52.034;5.090;2022-11-27T10:59:05;10.23;;;5.27;;
69894;SDS011;57172;52.034;5.090;2022-11-27T11:01:55;12.98;;;4.88;;
69894;SDS011;57172;52.034;5.090;2022-11-27T11:04:27;9.25;;;3.80;;
69894;SDS011;57172;52.034;5.090;2022-11-27T11:07:33;8.65;;;4.07;;
69894;SDS011;57172;52.034;5.090;2022-11-27T11:10:00;10.25;;;4.47;;
69894;SDS011;57172;52.034;5.090;2022-11-27T11:12:27;8.10;;;4.20;;
69894;SDS011;57172;52.034;5.090;2022-11-27T11:14:55;12.55;;;5.38;;
69894;SDS011;57172;52.034;5.090;2022-11-27T11:17:25;11.43;;;4.93;;
69894;SDS011;57172;52.034;5.090;2022-11-27T11:19:53;8.43;;;3.65;;
69894;SDS011;57172;52.034;5.090;2022-11-27T11:22:20;11.43;;;4.68;;
69894;SDS011;57172;52.034;5.090;2022-11-27T11:24:51;10.70;;;4.30;;
69894;SDS011;57172;52.034;5.090;2022-11-27T11:27:25;10.05;;;4.43;;
69894;SDS011;57172;52.034;5.090;2022-11-27T11:29:56;11.23;;;4.18;;
69894;SDS011;57172;52.034;5.090;2022-11-27T11:32:27;11.55;;;4.28;;
69894;SDS011;57172;52.034;5.090;2022-11-27T11:34:58;12.13;;;5.18;;
69894;SDS011;57172;52.034;5.090;2022-11-27T11:37:31;9.40;;;4.27;;
69894;SDS011;57172;52.034;5.090;2022-11-27T11:42:31;9.50;;;4.45;;
69894;SDS011;57172;52.034;5.090;2022-11-27T11:47:45;10.27;;;4.28;;
69894;SDS011;57172;52.034;5.090;2022-11-27T11:50:15;11.27;;;4.73;;
69894;SDS011;57172;52.034;5.090;2022-11-27T11:53:01;11.73;;;4.95;;
69894;SDS011;57172;52.034;5.090;2022-11-27T11:55:42;9.73;;;5.13;;
69894;SDS011;57172;52.034;5.090;2022-11-27T12:00:42;11.18;;;4.70;;
69894;SDS011;57172;52.034;5.090;2022-11-27T12:09:19;8.13;;;3.85;;
69894;SDS011;57172;52.034;5.090;2022-11-27T12:12:14;13.07;;;5.80;;
69894;SDS011;57172;52.034;5.090;2022-11-27T12:14:47;10.98;;;4.72;;
69894;SDS011;57172;52.034;5.090;2022-11-27T12:26:03;11.60;;;4.55;;
69894;SDS011;57172;52.034;5.090;2022-11-27T12:42:50;12.13;;;5.03;;
69894;SDS011;57172;52.034;5.090;2022-11-27T12:45:20;10.07;;;5.20;;
69894;SDS011;57172;52.034;5.090;2022-11-27T12:48:20;12.65;;;5.70;;
69894;SDS011;57172;52.034;5.090;2022-11-27T12:50:49;14.48;;;5.10;;
69894;SDS011;57172;52.034;5.090;2022-11-27T12:56:12;10.18;;;5.10;;
69894;SDS011;57172;52.034;5.090;2022-11-27T12:58:52;9.33;;;3.77;;
69894;SDS011;57172;52.034;5.090;2022-11-27T13:01:28;11.77;;;5.40;;
69894;SDS011;57172;52.034;5.090;2022-11-27T13:07:05;12.23;;;5.55;;
69894;SDS011;57172;52.034;5.090;2022-11-27T13:09:50;13.95;;;5.05;;
69894;SDS011;57172;52.034;5.090;2022-11-27T13:12:21;9.27;;;4.77;;
69894;SDS011;57172;52.034;5.090;2022-11-27T13:14:57;9.45;;;4.82;;
69894;SDS011;57172;52.034;5.090;2022-11-27T13:17:32;10.63;;;5.63;;
69894;SDS011;57172;52.034;5.090;2022-11-27T13:20:05;8.07;;;4.70;;
69894;SDS011;57172;52.034;5.090;2022-11-27T13:22:39;10.25;;;4.15;;
69894;SDS011;57172;52.034;5.090;2022-11-27T13:25:10;12.00;;;5.50;;
69894;SDS011;57172;52.034;5.090;2022-11-27T13:27:41;11.07;;;5.28;;
69894;SDS011;57172;52.034;5.090;2022-11-27T13:30:22;8.63;;;4.70;;
69894;SDS011;57172;52.034;5.090;2022-11-27T13:32:54;8.80;;;4.45;;
69894;SDS011;57172;52.034;5.090;2022-11-27T13:37:57;10.87;;;4.40;;
69894;SDS011;57172;52.034;5.090;2022-11-27T13:43:18;8.70;;;4.40;;
69894;SDS011;57172;52.034;5.090;2022-11-27T13:46:00;9.70;;;4.15;;
69894;SDS011;57172;52.034;5.090;2022-11-27T13:48:31;11.15;;;4.50;;
69894;SDS011;57172;52.034;5.090;2022-11-27T13:51:00;8.77;;;3.80;;
69894;SDS011;57172;52.034;5.090;2022-11-27T13:53:35;9.43;;;3.70;;
69894;SDS011;57172;52.034;5.090;2022-11-27T13:56:07;10.48;;;4.80;;
69894;SDS011;57172;52.034;5.090;2022-11-27T13:58:36;11.65;;;5.07;;
69894;SDS011;57172;52.034;5.090;2022-11-27T14:01:12;9.73;;;3.90;;
69894;SDS011;57172;52.034;5.090;2022-11-27T14:03:42;10.80;;;4.77;;
69894;SDS011;57172;52.034;5.090;2022-11-27T14:06:29;11.15;;;5.25;;
69894;SDS011;57172;52.034;5.090;2022-11-27T14:08:57;9.02;;;4.20;;
69894;SDS011;57172;52.034;5.090;2022-11-27T14:11:27;7.13;;;3.47;;
69894;SDS011;57172;52.034;5.090;2022-11-27T14:13:57;9.77;;;5.25;;
69894;SDS011;57172;52.034;5.090;2022-11-27T14:16:29;6.47;;;3.40;;
69894;SDS011;57172;52.034;5.090;2022-11-27T14:19:03;11.05;;;5.15;;
69894;SDS011;57172;52.034;5.090;2022-11-27T14:21:47;12.43;;;5.40;;
69894;SDS011;57172;52.034;5.090;2022-11-27T14:24:25;12.38;;;5.20;;
69894;SDS011;57172;52.034;5.090;2022-11-27T14:27:13;10.35;;;4.90;;
69894;SDS011;57172;52.034;5.090;2022-11-27T14:29:46;13.73;;;4.97;;
69894;SDS011;57172;52.034;5.090;2022-11-27T14:32:14;11.73;;;5.47;;
69894;SDS011;57172;52.034;5.090;2022-11-27T14:34:42;11.40;;;5.68;;
69894;SDS011;57172;52.034;5.090;2022-11-27T14:37:21;11.52;;;5.75;;
69894;SDS011;57172;52.034;5.090;2022-11-27T14:39:52;8.82;;;3.92;;
69894;SDS011;57172;52.034;5.090;2022-11-27T14:42:23;11.70;;;5.27;;
69894;SDS011;57172;52.034;5.090;2022-11-27T14:45:05;11.23;;;4.95;;
69894;SDS011;57172;52.034;5.090;2022-11-27T14:47:37;11.20;;;5.10;;
69894;SDS011;57172;52.034;5.090;2022-11-27T14:50:06;8.60;;;4.35;;
69894;SDS011;57172;52.034;5.090;2022-11-27T14:52:38;10.18;;;4.78;;
69894;SDS011;57172;52.034;5.090;2022-11-27T14:55:11;10.20;;;4.80;;
69894;SDS011;57172;52.034;5.090;2022-11-27T14:57:41;12.43;;;5.72;;
69894;SDS011;57172;52.034;5.090;2022-11-27T15:02:52;11.00;;;4.50;;
69894;SDS011;57172;52.034;5.090;2022-11-27T15:05:21;11.43;;;5.40;;
69894;SDS011;57172;52.034;5.090;2022-11-27T15:07:51;12.03;;;5.40;;
69894;SDS011;57172;52.034;5.090;2022-11-27T15:10:27;11.43;;;6.03;;
69894;SDS011;57172;52.034;5.090;2022-11-27T15:12:54;12.00;;;5.90;;
69894;SDS011;57172;52.034;5.090;2022-11-27T15:15:25;12.32;;;4.93;;
69894;SDS011;57172;52.034;5.090;2022-11-27T15:17:55;13.65;;;6.47;;
69894;SDS011;57172;52.034;5.090;2022-11-27T15:23:13;10.50;;;5.85;;
69894;SDS011;57172;52.034;5.090;2022-11-27T15:25:44;11.57;;;6.03;;
69894;SDS011;57172;52.034;5.090;2022-11-27T15:28:31;13.05;;;6.18;;
69894;SDS011;57172;52.034;5.090;2022-11-27T15:31:21;12.13;;;6.82;;
69894;SDS011;57172;52.034;5.090;2022-11-27T15:34:02;13.67;;;6.00;;
69894;SDS011;57172;52.034;5.090;2022-11-27T15:36:56;16.65;;;6.85;;
69894;SDS011;57172;52.034;5.090;2022-11-27T15:39:35;12.43;;;6.88;;
69894;SDS011;57172;52.034;5.090;2022-11-27T15:42:10;11.45;;;5.18;;
69894;SDS011;57172;52.034;5.090;2022-11-27T15:44:37;12.98;;;6.13;;
69894;SDS011;57172;52.034;5.090;2022-11-27T15:47:04;14.00;;;6.97;;
69894;SDS011;57172;52.034;5.090;2022-11-27T15:49:43;14.18;;;7.20;;
69894;SDS011;57172;52.034;5.090;2022-11-27T15:52:10;13.05;;;6.93;;
69894;SDS011;57172;52.034;5.090;2022-11-27T15:54:37;13.85;;;6.78;;
69894;SDS011;57172;52.034;5.090;2022-11-27T15:57:04;11.90;;;5.72;;
69894;SDS011;57172;52.034;5.090;2022-11-27T15:59:31;13.03;;;6.97;;
69894;SDS011;57172;52.034;5.090;2022-11-27T16:01:58;13.10;;;6.63;;
69894;SDS011;57172;52.034;5.090;2022-11-27T16:04:24;13.25;;;6.93;;
69894;SDS011;57172;52.034;5.090;2022-11-27T16:06:51;13.98;;;6.55;;
69894;SDS011;57172;52.034;5.090;2022-11-27T16:09:18;10.95;;;5.45;;
69894;SDS011;57172;52.034;5.090;2022-11-27T16:11:45;12.77;;;6.67;;
69894;SDS011;57172;52.034;5.090;2022-11-27T16:14:12;13.10;;;7.00;;
69894;SDS011;57172;52.034;5.090;2022-11-27T16:16:39;15.45;;;6.90;;
69894;SDS011;57172;52.034;5.090;2022-11-27T16:19:06;12.90;;;6.80;;
69894;SDS011;57172;52.034;5.090;2022-11-27T16:21:33;9.65;;;5.50;;
69894;SDS011;57172;52.034;5.090;2022-11-27T16:24:01;12.77;;;7.33;;
69894;SDS011;57172;52.034;5.090;2022-11-27T16:26:32;14.57;;;6.45;;
69894;SDS011;57172;52.034;5.090;2022-11-27T16:29:01;11.05;;;5.57;;
69894;SDS011;57172;52.034;5.090;2022-11-27T16:31:28;13.23;;;5.95;;
69894;SDS011;57172;52.034;5.090;2022-11-27T16:33:56;13.25;;;6.72;;
69894;SDS011;57172;52.034;5.090;2022-11-27T16:36:23;11.73;;;5.67;;
69894;SDS011;57172;52.034;5.090;2022-11-27T16:38:51;12.45;;;6.10;;
69894;SDS011;57172;52.034;5.090;2022-11-27T16:41:22;14.60;;;6.15;;
69894;SDS011;57172;52.034;5.090;2022-11-27T16:43:53;10.93;;;6.03;;